Time;durP1;ratioP1;P1;durP2;ratioP2;P2;SDS_P1;SDS_P2;PMS_P1;PMS_P2;Temp;Humidity;BMP_temperature;BMP_pressure;BME280_temperature;BME280_humidity;BME280_pressure;Samples;Min_cycle;Max_cycle;Signal;HPM_P1;HPM_P2
2022/03/06 00:01:59;;;;;;;11.10;5.43;;;;;;;5.86;39.03;101065.59;5087045;28;20218;-62
2022/03/06 00:04:29;;;;;;;11.70;5.67;;;;;;;5.95;39.21;101058.91;5089595;28;20218;-61
2022/03/06 00:06:57;;;;;;;10.97;5.90;;;;;;;5.88;38.96;101062.91;5087306;28;20213;-61
2022/03/06 00:09:25;;;;;;;12.40;6.40;;;;;;;5.80;39.11;101065.19;5084819;28;20220;-63
2022/03/06 00:12:04;;;;;;;11.23;6.20;;;;;;;5.80;39.79;101066.03;5086029;28;20701;-60
2022/03/06 00:14:32;;;;;;;11.60;6.70;;;;;;;5.79;39.81;101068.75;5089031;28;20320;-63
2022/03/06 00:16:59;;;;;;;14.90;6.97;;;;;;;5.49;40.37;101064.56;5085132;28;20206;-64
2022/03/06 00:19:29;;;;;;;14.23;6.90;;;;;;;5.54;40.43;101059.84;5088426;28;20310;-65
2022/03/06 00:21:56;;;;;;;11.33;6.30;;;;;;;5.45;40.54;101057.00;5086658;28;20641;-65
2022/03/06 00:24:24;;;;;;;14.03;6.73;;;;;;;5.59;40.30;101057.75;5086820;28;20306;-63
2022/03/06 00:26:52;;;;;;;14.93;6.80;;;;;;;5.68;39.93;101058.94;5093505;28;20578;-61
2022/03/06 00:29:19;;;;;;;13.27;6.40;;;;;;;5.51;40.24;101061.84;5086413;28;20222;-66
2022/03/06 00:31:47;;;;;;;13.40;6.80;;;;;;;5.52;40.10;101058.28;5086629;28;20219;-62
2022/03/06 00:34:15;;;;;;;13.43;7.07;;;;;;;5.54;40.52;101069.56;5086864;28;20245;-62
2022/03/06 00:36:44;;;;;;;12.37;7.00;;;;;;;5.40;40.80;101065.19;5084127;28;20331;-61
2022/03/06 00:39:18;;;;;;;12.93;6.83;;;;;;;5.43;40.69;101072.03;5081896;28;20221;-62
2022/03/06 00:41:46;;;;;;;13.87;7.03;;;;;;;5.53;40.32;101068.72;5088077;28;20226;-62
2022/03/06 00:44:13;;;;;;;13.57;6.90;;;;;;;5.44;40.99;101071.09;5081199;28;20226;-67
2022/03/06 00:46:41;;;;;;;12.93;7.93;;;;;;;5.40;40.72;101065.19;5064194;28;20450;-65
2022/03/06 00:49:09;;;;;;;13.33;7.37;;;;;;;5.41;41.02;101068.66;5062869;28;20242;-65
2022/03/06 00:51:52;;;;;;;13.70;7.60;;;;;;;4.86;42.07;101070.41;5064796;28;20301;-65
2022/03/06 00:54:20;;;;;;;14.67;7.47;;;;;;;4.91;42.16;101070.13;5063917;28;20476;-65
2022/03/06 00:56:48;;;;;;;12.10;6.70;;;;;;;5.09;41.91;101065.50;5065501;28;20200;-66
2022/03/06 00:59:18;;;;;;;15.37;7.70;;;;;;;5.27;41.81;101070.41;5065969;28;20709;-65
2022/03/06 01:01:45;;;;;;;16.30;7.50;;;;;;;5.13;42.24;101074.84;5069428;28;20207;-65
2022/03/06 01:04:13;;;;;;;14.57;7.57;;;;;;;4.97;42.69;101074.16;5067182;28;20716;-65
2022/03/06 01:06:41;;;;;;;15.30;8.07;;;;;;;4.96;42.35;101075.09;5068084;28;20221;-65
2022/03/06 01:09:10;;;;;;;15.67;7.40;;;;;;;4.88;42.93;101071.16;5064864;28;20744;-65
2022/03/06 01:11:42;;;;;;;15.33;7.40;;;;;;;4.44;44.13;101073.09;5063168;28;20310;-65
2022/03/06 01:14:12;;;;;;;16.43;8.43;;;;;;;4.91;43.64;101078.88;5064998;28;20562;-65
2022/03/06 01:16:47;;;;;;;14.93;8.47;;;;;;;4.92;43.69;101070.03;5066435;28;20219;-64
2022/03/06 01:19:22;;;;;;;17.77;7.80;;;;;;;4.93;43.64;101071.72;5068230;28;20244;-64
2022/03/06 01:21:50;;;;;;;16.67;8.00;;;;;;;4.97;43.51;101067.13;5067079;28;20220;-64
2022/03/06 01:24:19;;;;;;;16.17;8.23;;;;;;;4.43;44.88;101079.28;5062959;28;20892;-64
2022/03/06 01:26:47;;;;;;;14.80;7.33;;;;;;;4.57;45.18;101068.78;5067196;28;20643;-65
2022/03/06 01:29:14;;;;;;;14.97;7.90;;;;;;;4.92;43.88;101070.03;5065732;28;20213;-65
2022/03/06 01:31:42;;;;;;;15.87;9.30;;;;;;;4.90;44.06;101071.09;5065302;28;20213;-65
2022/03/06 01:34:10;;;;;;;13.57;7.97;;;;;;;4.90;44.20;101071.94;5065838;28;20210;-65
2022/03/06 01:36:38;;;;;;;16.20;8.73;;;;;;;4.94;44.41;101064.66;5064006;28;20232;-65
2022/03/06 01:39:08;;;;;;;16.93;8.60;;;;;;;4.64;45.08;101064.84;5065984;28;20214;-65
2022/03/06 01:41:40;;;;;;;16.10;8.60;;;;;;;4.86;44.56;101061.69;5060239;28;20226;-64
2022/03/06 01:44:14;;;;;;;17.23;7.87;;;;;;;4.78;44.87;101061.34;5066094;28;20593;-64
2022/03/06 01:46:45;;;;;;;18.80;9.43;;;;;;;4.79;44.58;101061.25;5065604;28;20210;-64
2022/03/06 01:49:14;;;;;;;17.77;8.50;;;;;;;5.02;44.22;101064.19;5065749;28;20217;-64
2022/03/06 01:51:42;;;;;;;17.07;8.33;;;;;;;4.61;44.82;101059.75;5064738;28;20204;-64
2022/03/06 01:54:10;;;;;;;15.83;8.63;;;;;;;4.85;44.25;101067.88;5064655;28;20205;-65
2022/03/06 01:56:40;;;;;;;13.33;7.87;;;;;;;4.91;43.94;101067.50;5066581;28;20447;-64
2022/03/06 01:59:08;;;;;;;19.37;8.40;;;;;;;4.67;44.68;101062.00;5063566;28;20218;-64
2022/03/06 02:01:36;;;;;;;17.70;8.60;;;;;;;4.88;44.28;101063.28;5063113;28;20583;-64
2022/03/06 02:04:04;;;;;;;14.70;8.30;;;;;;;4.96;44.48;101054.91;5063280;28;20253;-64
2022/03/06 02:06:34;;;;;;;16.17;8.17;;;;;;;4.74;44.50;101054.59;5062729;28;20230;-65
2022/03/06 02:09:02;;;;;;;16.17;8.60;;;;;;;4.86;44.28;101054.66;5064268;28;20213;-64
2022/03/06 02:11:30;;;;;;;13.93;7.27;;;;;;;4.99;43.55;101057.34;5066208;28;20213;-64
2022/03/06 02:14:02;;;;;;;14.37;8.43;;;;;;;4.89;43.85;101058.88;5061729;28;20681;-64
2022/03/06 02:16:32;;;;;;;14.67;7.50;;;;;;;4.87;44.09;101058.97;5068001;28;20855;-64
2022/03/06 02:19:00;;;;;;;16.70;8.27;;;;;;;4.83;43.97;101054.88;5063138;28;20210;-64
2022/03/06 02:21:29;;;;;;;14.50;7.13;;;;;;;4.80;44.18;101055.03;5061512;28;20324;-64
2022/03/06 02:23:59;;;;;;;15.83;8.00;;;;;;;4.88;43.76;101051.94;5062182;28;20276;-64
2022/03/06 02:26:28;;;;;;;16.57;7.70;;;;;;;4.78;43.51;101051.66;5065986;28;20253;-63
2022/03/06 02:28:55;;;;;;;13.27;7.10;;;;;;;4.61;43.99;101058.91;5068120;28;20209;-64
2022/03/06 02:31:23;;;;;;;17.07;9.00;;;;;;;4.67;43.97;101053.28;5062801;28;20680;-64
2022/03/06 02:33:51;;;;;;;11.87;6.83;;;;;;;4.76;43.60;101050.06;5066879;28;20221;-64
2022/03/06 02:36:19;;;;;;;15.57;7.63;;;;;;;4.71;43.54;101050.38;5062599;28;20225;-64
2022/03/06 02:38:50;;;;;;;14.27;7.60;;;;;;;4.80;43.58;101052.41;5062008;28;20609;-64
2022/03/06 02:41:17;;;;;;;12.73;7.23;;;;;;;4.77;43.73;101057.84;5066723;28;20840;-64
2022/03/06 02:43:45;;;;;;;12.93;7.47;;;;;;;4.69;43.55;101051.41;5066664;28;20796;-64
2022/03/06 02:46:13;;;;;;;14.30;7.47;;;;;;;4.77;43.24;101049.97;5071070;28;20754;-65
2022/03/06 02:48:41;;;;;;;12.03;6.83;;;;;;;4.61;43.64;101051.88;5063681;28;20217;-64
2022/03/06 02:51:08;;;;;;;15.40;7.43;;;;;;;4.64;43.40;101043.81;5062659;28;20296;-64
2022/03/06 02:53:45;;;;;;;14.97;7.67;;;;;;;4.59;43.63;101048.50;5063572;28;20219;-64
2022/03/06 02:56:29;;;;;;;15.97;7.17;;;;;;;4.61;43.85;101049.25;5065505;28;20528;-64
2022/03/06 02:58:57;;;;;;;15.80;7.73;;;;;;;4.58;44.07;101049.44;5059905;28;20200;-64
2022/03/06 03:01:25;;;;;;;12.67;6.70;;;;;;;4.41;44.22;101047.00;5064620;28;20220;-64
2022/03/06 03:03:53;;;;;;;12.80;6.87;;;;;;;4.35;44.49;101047.41;5063720;28;20748;-64
2022/03/06 03:06:21;;;;;;;15.00;7.73;;;;;;;4.54;43.91;101048.81;5063593;28;20223;-64
2022/03/06 03:08:49;;;;;;;13.83;7.63;;;;;;;4.47;43.77;101051.91;5063772;28;20218;-64
2022/03/06 03:11:17;;;;;;;16.70;7.57;;;;;;;4.50;43.91;101041.19;5064411;28;20219;-64
2022/03/06 03:13:46;;;;;;;15.30;7.90;;;;;;;4.27;44.71;101045.25;5060894;28;20233;-64
2022/03/06 03:16:14;;;;;;;17.17;7.83;;;;;;;4.51;44.11;101048.13;5067201;28;20215;-64
2022/03/06 03:18:41;;;;;;;15.83;7.70;;;;;;;4.18;45.29;101050.22;5067426;28;20484;-64
2022/03/06 03:21:09;;;;;;;13.57;7.23;;;;;;;4.40;44.27;101050.56;5068454;28;20653;-64
2022/03/06 03:23:38;;;;;;;14.43;6.93;;;;;;;4.55;44.34;101049.66;5067857;28;20227;-64
2022/03/06 03:26:08;;;;;;;12.23;6.93;;;;;;;4.54;44.16;101058.47;5067264;28;20231;-63
2022/03/06 03:28:38;;;;;;;13.43;6.77;;;;;;;4.57;44.35;101052.19;5061954;28;20216;-64
2022/03/06 03:31:07;;;;;;;14.47;7.50;;;;;;;4.12;45.38;101052.28;5067933;28;20210;-64
2022/03/06 03:33:41;;;;;;;14.30;7.43;;;;;;;4.29;45.54;101059.13;5065053;28;20212;-65
2022/03/06 03:36:13;;;;;;;15.03;7.60;;;;;;;4.32;45.23;101065.97;5063915;28;20658;-65
2022/03/06 03:38:40;;;;;;;16.17;7.20;;;;;;;4.36;45.00;101063.06;5066781;28;20207;-65
2022/03/06 03:41:16;;;;;;;14.07;6.93;;;;;;;4.44;45.08;101073.09;5065297;28;20207;-65
2022/03/06 03:43:55;;;;;;;12.10;6.97;;;;;;;4.51;44.69;101063.91;5062572;28;20302;-65
2022/03/06 03:46:24;;;;;;;14.93;7.63;;;;;;;4.43;45.20;101068.78;5064121;28;20236;-65
2022/03/06 03:48:52;;;;;;;14.83;6.83;;;;;;;4.25;45.80;101067.28;5070867;28;20221;-65
2022/03/06 03:51:20;;;;;;;13.07;7.20;;;;;;;4.37;45.67;101077.03;5067505;28;20206;-65
2022/03/06 03:53:48;;;;;;;14.03;7.53;;;;;;;4.26;45.89;101076.84;5065218;28;20316;-65
2022/03/06 03:56:16;;;;;;;13.27;7.73;;;;;;;4.30;46.12;101078.38;5065443;28;20212;-66
2022/03/06 03:58:44;;;;;;;16.20;7.63;;;;;;;4.46;45.66;101081.72;5065153;28;20228;-65
2022/03/06 04:01:12;;;;;;;14.03;7.47;;;;;;;4.40;45.88;101087.34;5070638;28;20572;-65
2022/03/06 04:03:41;;;;;;;13.73;7.40;;;;;;;4.31;46.22;101077.44;5065797;28;20593;-65
2022/03/06 04:06:09;;;;;;;13.87;7.20;;;;;;;4.30;46.11;101088.88;5067674;28;20324;-64
2022/03/06 04:08:36;;;;;;;15.07;7.47;;;;;;;4.36;46.02;101085.84;5070046;28;20282;-65
2022/03/06 04:11:05;;;;;;;13.57;6.97;;;;;;;4.33;46.11;101091.28;5068601;28;20245;-65
2022/03/06 04:13:35;;;;;;;14.27;7.17;;;;;;;4.32;46.39;101089.59;5067113;28;20218;-64
2022/03/06 04:16:03;;;;;;;14.63;6.80;;;;;;;4.42;46.12;101101.22;5068732;28;20298;-63
2022/03/06 04:18:31;;;;;;;13.97;7.33;;;;;;;4.46;45.89;101100.97;5064870;28;20307;-65
2022/03/06 04:21:00;;;;;;;14.63;7.37;;;;;;;4.27;46.16;101099.53;5065949;28;20215;-64
2022/03/06 04:23:27;;;;;;;14.53;7.37;;;;;;;4.44;45.88;101104.63;5065918;28;20212;-64
2022/03/06 04:25:55;;;;;;;13.70;6.93;;;;;;;4.36;46.23;101104.25;5064557;28;20324;-64
2022/03/06 04:28:23;;;;;;;13.27;7.47;;;;;;;4.20;47.12;101119.22;5063239;28;20223;-64
2022/03/06 04:30:50;;;;;;;14.70;7.20;;;;;;;4.00;47.09;101121.25;5068399;28;20228;-65
2022/03/06 04:33:18;;;;;;;15.97;6.87;;;;;;;4.16;47.06;101123.81;5069281;28;20216;-65
2022/03/06 04:35:46;;;;;;;15.00;7.00;;;;;;;4.38;46.56;101115.50;5063890;28;20647;-64
2022/03/06 04:38:15;;;;;;;12.40;6.53;;;;;;;4.41;46.25;101115.28;5066379;28;20232;-64
2022/03/06 04:40:43;;;;;;;14.13;7.20;;;;;;;4.34;46.88;101116.59;5062774;28;20246;-64
2022/03/06 04:43:10;;;;;;;14.37;7.60;;;;;;;4.01;47.24;101128.19;5066978;28;20305;-64
2022/03/06 04:45:38;;;;;;;13.87;7.17;;;;;;;4.18;47.30;101127.19;5067523;28;20344;-64
2022/03/06 04:48:06;;;;;;;14.70;6.77;;;;;;;4.10;47.57;101137.31;5062445;28;20661;-64
2022/03/06 04:50:34;;;;;;;14.47;7.37;;;;;;;4.39;46.78;101125.06;5066255;28;20216;-64
2022/03/06 04:53:03;;;;;;;13.87;7.23;;;;;;;4.40;46.51;101130.19;5063776;28;20212;-64
2022/03/06 04:55:32;;;;;;;16.83;7.30;;;;;;;4.48;46.45;101127.13;5065189;28;20227;-65
2022/03/06 04:57:59;;;;;;;16.53;7.43;;;;;;;4.48;46.22;101132.41;5065024;28;20293;-64
2022/03/06 05:00:28;;;;;;;13.90;6.90;;;;;;;4.39;46.49;101130.31;5068733;28;20573;-64
2022/03/06 05:02:56;;;;;;;13.70;7.23;;;;;;;4.46;47.05;101131.63;5062783;28;20243;-64
2022/03/06 05:05:24;;;;;;;13.77;6.87;;;;;;;4.51;46.37;101132.19;5065656;28;20232;-64
2022/03/06 05:07:51;;;;;;;13.57;7.03;;;;;;;4.51;46.52;101126.94;5062344;28;20312;-64
2022/03/06 05:10:19;;;;;;;12.07;6.70;;;;;;;4.37;46.50;101125.16;5064648;28;20237;-65
2022/03/06 05:12:48;;;;;;;15.27;7.03;;;;;;;4.42;46.75;101127.50;5063877;28;20217;-65
2022/03/06 05:15:16;;;;;;;16.10;7.47;;;;;;;4.39;46.85;101120.66;5062944;28;20208;-65
2022/03/06 05:17:44;;;;;;;13.73;7.23;;;;;;;4.46;46.42;101127.22;5063348;28;20221;-65
2022/03/06 05:20:22;;;;;;;17.83;6.63;;;;;;;4.38;46.54;101123.38;5065090;28;20563;-65
2022/03/06 05:22:57;;;;;;;13.80;7.13;;;;;;;4.36;46.87;101138.38;5062841;28;20327;-65
2022/03/06 05:25:25;;;;;;;12.77;7.37;;;;;;;4.25;46.79;101136.38;5064914;28;20587;-65
2022/03/06 05:27:54;;;;;;;13.03;7.60;;;;;;;4.31;46.80;101136.00;5063354;28;20301;-65
2022/03/06 05:30:21;;;;;;;14.30;7.97;;;;;;;4.16;47.29;101136.94;5063353;28;20323;-65
2022/03/06 05:32:49;;;;;;;16.47;8.27;;;;;;;4.34;46.90;101140.25;5059574;28;20199;-65
2022/03/06 05:35:17;;;;;;;13.03;7.60;;;;;;;4.20;47.60;101148.09;5063206;28;20291;-65
2022/03/06 05:37:45;;;;;;;15.30;8.27;;;;;;;3.95;47.90;101151.34;5064091;28;20215;-64
2022/03/06 05:40:12;;;;;;;16.07;8.30;;;;;;;4.21;47.52;101152.44;5061361;28;20228;-64
2022/03/06 05:42:46;;;;;;;14.77;7.90;;;;;;;4.14;47.66;101152.75;5063652;28;20215;-64
2022/03/06 05:45:15;;;;;;;15.80;7.97;;;;;;;4.11;47.88;101152.97;5061844;28;20286;-65
2022/03/06 05:47:44;;;;;;;11.37;7.03;;;;;;;4.09;47.63;101161.84;5061408;28;20238;-64
2022/03/06 05:50:12;;;;;;;17.97;7.70;;;;;;;4.17;47.27;101154.38;5065768;28;20208;-65
2022/03/06 05:52:40;;;;;;;13.77;7.83;;;;;;;4.23;47.00;101158.41;5063930;28;20222;-65
2022/03/06 05:55:14;;;;;;;13.80;7.63;;;;;;;4.25;47.18;101161.78;5061277;28;20215;-65
2022/03/06 05:57:42;;;;;;;13.83;7.03;;;;;;;4.21;47.21;101160.31;5063043;28;20291;-65
2022/03/06 06:00:10;;;;;;;14.37;8.07;;;;;;;4.12;47.54;101157.28;5063695;28;20251;-65
2022/03/06 06:02:45;;;;;;;11.93;6.63;;;;;;;4.28;47.17;101166.88;5059999;28;21782;-64
2022/03/06 06:05:14;;;;;;;14.63;7.00;;;;;;;4.20;47.19;101164.72;5064910;28;20583;-63
2022/03/06 06:07:42;;;;;;;11.90;6.47;;;;;;;4.04;47.80;101171.78;5061488;28;20208;-63
2022/03/06 06:10:11;;;;;;;14.00;7.37;;;;;;;4.24;47.27;101168.81;5060963;28;20212;-64
2022/03/06 06:12:40;;;;;;;13.60;7.93;;;;;;;4.14;47.32;101170.28;5063676;28;20642;-64
2022/03/06 06:15:09;;;;;;;11.73;6.50;;;;;;;4.31;47.21;101177.19;5062256;28;20216;-64
2022/03/06 06:17:38;;;;;;;12.80;6.63;;;;;;;4.31;47.34;101179.81;5064247;28;20217;-64
2022/03/06 06:20:08;;;;;;;12.57;6.87;;;;;;;4.13;47.72;101177.31;5063371;28;20216;-64
2022/03/06 06:22:36;;;;;;;12.33;6.73;;;;;;;4.01;48.02;101188.56;5062442;28;20298;-64
2022/03/06 06:25:05;;;;;;;12.30;6.57;;;;;;;4.08;47.99;101179.38;5059274;28;20220;-65
2022/03/06 06:27:33;;;;;;;11.77;6.43;;;;;;;4.25;47.37;101174.91;5062182;28;20250;-65
2022/03/06 06:30:00;;;;;;;14.07;7.33;;;;;;;4.13;47.99;101189.63;5063256;28;20844;-65
2022/03/06 06:32:28;;;;;;;15.03;7.20;;;;;;;4.35;47.11;101189.19;5058937;28;20209;-65
2022/03/06 06:34:56;;;;;;;13.53;7.07;;;;;;;4.31;47.30;101187.72;5063683;28;20213;-65
2022/03/06 06:37:25;;;;;;;12.77;6.87;;;;;;;4.13;47.95;101194.88;5064528;28;20215;-65
2022/03/06 06:39:53;;;;;;;11.40;6.10;;;;;;;4.22;47.65;101196.97;5062140;28;20225;-65
2022/03/06 06:42:21;;;;;;;13.20;7.07;;;;;;;4.24;47.55;101207.34;5063845;28;20296;-64
2022/03/06 06:44:48;;;;;;;12.53;6.67;;;;;;;4.14;47.76;101202.63;5064098;28;20240;-64
2022/03/06 06:47:16;;;;;;;11.90;6.30;;;;;;;4.34;47.13;101203.25;5063406;28;20661;-64
2022/03/06 06:49:44;;;;;;;14.23;6.93;;;;;;;4.22;47.73;101206.63;5069740;28;20215;-64
2022/03/06 06:52:11;;;;;;;14.07;6.70;;;;;;;4.35;47.42;101210.19;5065225;28;20322;-64
2022/03/06 06:54:40;;;;;;;12.00;6.03;;;;;;;4.31;47.39;101214.78;5065418;28;20296;-64
2022/03/06 06:57:08;;;;;;;12.20;6.53;;;;;;;4.45;46.96;101206.94;5066417;28;20207;-65
2022/03/06 06:59:36;;;;;;;14.73;7.03;;;;;;;4.40;47.45;101210.75;5067224;28;20217;-65
2022/03/06 07:02:04;;;;;;;10.77;6.50;;;;;;;4.28;47.33;101214.13;5065790;28;20665;-64
2022/03/06 07:04:32;;;;;;;15.63;7.63;;;;;;;4.42;47.46;101209.75;5067042;28;20658;-64
2022/03/06 07:07:00;;;;;;;11.60;6.70;;;;;;;4.42;47.72;101211.53;5067308;28;20650;-65
2022/03/06 07:09:28;;;;;;;12.43;6.57;;;;;;;4.40;47.41;101216.03;5065272;28;20219;-64
2022/03/06 07:11:57;;;;;;;11.30;6.30;;;;;;;4.26;47.69;101218.63;5066564;28;20212;-65
2022/03/06 07:14:25;;;;;;;14.47;6.30;;;;;;;4.42;47.64;101216.78;5066860;28;20298;-65
2022/03/06 07:16:52;;;;;;;12.50;7.00;;;;;;;4.63;47.18;101219.91;5067645;28;20217;-65
2022/03/06 07:19:20;;;;;;;11.97;6.67;;;;;;;4.64;47.47;101225.09;5068302;28;20210;-65
2022/03/06 07:21:48;;;;;;;12.30;7.37;;;;;;;4.63;47.18;101225.16;5066665;28;20224;-65
2022/03/06 07:24:16;;;;;;;13.27;7.00;;;;;;;4.47;47.48;101220.00;5070270;28;20219;-64
2022/03/06 07:26:44;;;;;;;12.27;7.00;;;;;;;4.54;47.66;101222.16;5069098;28;20631;-66
2022/03/06 07:29:13;;;;;;;14.27;7.50;;;;;;;4.76;47.20;101224.34;5066758;28;20272;-68
2022/03/06 07:31:40;;;;;;;13.30;6.67;;;;;;;4.72;47.10;101225.47;5066754;28;20287;-65
2022/03/06 07:34:08;;;;;;;11.60;6.67;;;;;;;4.83;47.04;101228.31;5067780;28;20218;-65
2022/03/06 07:36:36;;;;;;;15.27;6.40;;;;;;;4.87;47.11;101227.16;5066548;28;20215;-65
2022/03/06 07:39:04;;;;;;;13.97;7.30;;;;;;;5.02;46.57;101221.91;5066656;28;20234;-65
2022/03/06 07:41:39;;;;;;;14.20;8.37;;;;;;;5.05;46.66;101232.22;5065903;28;20210;-64
2022/03/06 07:44:14;;;;;;;14.27;7.90;;;;;;;5.01;47.32;101220.22;5060183;28;20729;-65
2022/03/06 07:46:42;;;;;;;14.37;8.27;;;;;;;4.97;47.41;101229.22;5066144;28;20300;-65
2022/03/06 07:49:10;;;;;;;14.13;7.00;;;;;;;4.98;47.19;101221.25;5065500;28;20211;-65
2022/03/06 07:51:40;;;;;;;11.80;6.60;;;;;;;5.15;47.01;101228.94;5065453;28;20689;-65
2022/03/06 07:54:13;;;;;;;11.50;6.50;;;;;;;5.09;47.20;101224.06;5065250;28;20202;-65
2022/03/06 07:56:43;;;;;;;11.60;7.13;;;;;;;4.74;47.51;101228.00;5066121;28;20210;-66
2022/03/06 07:59:15;;;;;;;12.33;6.73;;;;;;;5.07;46.98;101220.69;5064605;28;20244;-65
2022/03/06 08:01:54;;;;;;;12.47;6.77;;;;;;;5.34;46.10;101217.28;5064778;28;20710;-65
2022/03/06 08:04:22;;;;;;;14.70;7.77;;;;;;;5.38;46.27;101230.13;5064071;28;20218;-65
2022/03/06 08:06:50;;;;;;;11.57;6.93;;;;;;;5.56;45.72;101230.75;5063570;28;20628;-65
2022/03/06 08:09:24;;;;;;;15.07;7.37;;;;;;;5.61;45.88;101231.31;5065530;28;20231;-65
2022/03/06 08:12:00;;;;;;;15.17;8.07;;;;;;;6.02;45.41;101231.31;5068204;28;20691;-65
2022/03/06 08:14:31;;;;;;;12.87;6.90;;;;;;;6.13;44.85;101239.34;5066289;28;20289;-65
2022/03/06 08:17:11;;;;;;;16.23;8.20;;;;;;;6.34;44.44;101237.91;5065139;28;20653;-65
2022/03/06 08:19:38;;;;;;;15.07;8.20;;;;;;;6.39;44.37;101235.81;5067085;28;20298;-65
2022/03/06 08:22:07;;;;;;;14.97;7.37;;;;;;;6.46;44.03;101241.53;5063417;28;20237;-67
2022/03/06 08:24:35;;;;;;;12.87;7.47;;;;;;;6.41;44.31;101241.00;5064347;28;20212;-66
2022/03/06 08:27:04;;;;;;;12.47;6.90;;;;;;;6.47;43.89;101245.00;5066130;28;20258;-64
2022/03/06 08:29:32;;;;;;;14.70;7.03;;;;;;;6.56;44.11;101254.94;5067287;28;20644;-65
2022/03/06 08:31:59;;;;;;;12.80;7.53;;;;;;;6.71;43.76;101245.97;5065410;28;20302;-64
2022/03/06 08:34:46;;;;;;;13.40;7.27;;;;;;;7.01;42.77;101243.03;5063281;28;20310;-66
2022/03/06 08:37:14;;;;;;;14.90;7.27;;;;;;;7.57;41.89;101241.66;5064335;28;20576;-64
2022/03/06 08:39:42;;;;;;;13.30;7.97;;;;;;;7.40;42.23;101250.78;5065301;28;20575;-65
2022/03/06 08:42:10;;;;;;;13.40;7.77;;;;;;;7.59;41.88;101249.47;5065416;28;20667;-66
2022/03/06 08:44:37;;;;;;;15.83;7.70;;;;;;;8.04;40.99;101246.13;5063510;28;20247;-66
2022/03/06 08:47:06;;;;;;;13.37;6.80;;;;;;;8.23;40.61;101245.59;5064353;28;20277;-66
2022/03/06 08:49:35;;;;;;;14.33;7.40;;;;;;;8.96;38.87;101256.78;5064835;28;20697;-66
2022/03/06 08:52:03;;;;;;;11.30;6.67;;;;;;;8.60;39.04;101249.00;5064229;28;20210;-66
2022/03/06 08:54:31;;;;;;;12.33;6.90;;;;;;;11.04;35.41;101245.88;5067332;28;20225;-66
2022/03/06 08:56:58;;;;;;;11.87;7.17;;;;;;;10.56;35.32;101241.97;5064353;28;20619;-65
2022/03/06 08:59:26;;;;;;;14.73;7.60;;;;;;;10.75;34.67;101243.91;5063876;28;20575;-67
2022/03/06 09:01:55;;;;;;;15.00;7.60;;;;;;;11.00;34.14;101245.28;5065233;28;20546;-66
2022/03/06 09:04:31;;;;;;;13.33;7.37;;;;;;;10.84;34.80;101245.78;5063168;28;20212;-65
2022/03/06 09:07:01;;;;;;;13.83;7.40;;;;;;;12.15;33.27;101255.44;5062870;28;20315;-65
2022/03/06 09:09:28;;;;;;;10.73;6.70;;;;;;;15.71;28.18;101244.25;5065147;28;20224;-65
2022/03/06 09:11:56;;;;;;;11.43;7.07;;;;;;;20.28;22.90;101238.38;5061194;28;20689;-66
2022/03/06 09:14:24;;;;;;;11.30;6.53;;;;;;;22.24;20.59;101237.03;5059971;28;20219;-65
2022/03/06 09:16:52;;;;;;;9.70;6.50;;;;;;;21.09;21.10;101236.13;5063983;28;20682;-65
2022/03/06 09:19:20;;;;;;;10.17;6.80;;;;;;;21.36;20.63;101238.81;5064400;28;20207;-65
2022/03/06 09:21:47;;;;;;;9.63;6.90;;;;;;;20.79;20.44;101233.66;5061866;28;20211;-65
2022/03/06 09:24:16;;;;;;;9.33;6.80;;;;;;;21.86;19.38;101236.72;5064701;28;20247;-66
2022/03/06 09:26:47;;;;;;;9.57;6.70;;;;;;;20.52;19.76;101240.69;5065200;28;20672;-66
2022/03/06 09:29:15;;;;;;;8.77;6.60;;;;;;;22.01;18.77;101237.41;5059977;28;20266;-66
2022/03/06 09:31:43;;;;;;;8.05;6.30;;;;;;;21.21;19.84;101229.16;5065344;28;21190;-65
2022/03/06 09:34:11;;;;;;;8.25;6.35;;;;;;;16.18;24.65;101239.19;5065308;28;20245;-66
2022/03/06 09:36:48;;;;;;;8.98;6.18;;;;;;;14.11;26.71;101238.50;5063486;28;20264;-66
2022/03/06 09:39:17;;;;;;;8.25;6.10;;;;;;;19.63;20.06;101228.56;5066390;28;20230;-65
2022/03/06 09:41:45;;;;;;;8.77;5.85;;;;;;;23.91;16.51;101230.06;5064260;28;20298;-66
2022/03/06 09:44:13;;;;;;;7.40;5.45;;;;;;;17.65;21.41;101235.22;5061613;28;20815;-65
2022/03/06 09:46:44;;;;;;;7.78;5.97;;;;;;;21.25;17.77;101231.28;5065282;28;20334;-65
2022/03/06 09:49:15;;;;;;;7.63;5.53;;;;;;;15.52;23.91;101241.81;5064715;28;20226;-66
2022/03/06 09:51:44;;;;;;;7.30;5.38;;;;;;;13.29;24.47;101236.75;5060909;28;20215;-66
2022/03/06 09:54:16;;;;;;;7.23;5.50;;;;;;;13.45;23.58;101241.47;5066108;28;20200;-67
2022/03/06 09:56:50;;;;;;;6.73;5.30;;;;;;;11.94;25.82;101233.47;5060981;28;20215;-66
2022/03/06 09:59:17;;;;;;;9.70;5.67;;;;;;;11.24;26.06;101237.88;5063546;28;20225;-66
2022/03/06 10:01:45;;;;;;;8.40;6.47;;;;;;;11.12;27.08;101238.94;5062441;28;20735;-62
2022/03/06 10:04:24;;;;;;;7.93;5.90;;;;;;;11.20;27.61;101236.44;5065320;28;20215;-57
2022/03/06 10:06:59;;;;;;;8.97;5.67;;;;;;;13.51;26.28;101236.38;5062553;28;20249;-62
2022/03/06 10:09:28;;;;;;;8.30;6.00;;;;;;;22.92;17.56;101223.31;5065488;28;20230;-62
2022/03/06 10:12:18;;;;;;;6.50;5.10;;;;;;;25.03;14.59;101214.78;5062724;28;20215;-61
2022/03/06 10:14:49;;;;;;;8.57;5.00;;;;;;;19.38;18.82;101227.19;5059536;28;20229;-61
2022/03/06 10:17:21;;;;;;;6.35;5.22;;;;;;;20.65;17.44;101221.94;5063338;28;20199;-63
2022/03/06 10:19:57;;;;;;;7.07;5.22;;;;;;;18.53;20.21;101232.09;5061168;28;20631;-61
2022/03/06 10:22:27;;;;;;;7.47;5.22;;;;;;;15.99;22.49;101226.09;5062508;28;20238;-61
2022/03/06 10:24:56;;;;;;;10.00;5.05;;;;;;;16.46;22.22;101232.47;5063486;28;20207;-61
2022/03/06 10:27:53;;;;;;;7.90;5.72;;;;;;;17.52;19.99;101227.72;5067159;28;20533;-62
2022/03/06 10:30:34;;;;;;;7.68;5.28;;;;;;;19.32;19.98;101226.09;5063759;28;20214;-63
2022/03/06 10:33:03;;;;;;;7.38;5.40;;;;;;;22.35;16.27;101230.16;5066992;28;20223;-64
2022/03/06 10:35:36;;;;;;;9.02;5.63;;;;;;;21.19;16.52;101236.66;5067426;28;20207;-62
2022/03/06 10:38:19;;;;;;;6.65;5.22;;;;;;;20.64;17.41;101239.16;5066175;28;20237;-64
2022/03/06 10:40:48;;;;;;;7.40;5.78;;;;;;;22.83;15.91;101231.66;5065461;28;20272;-63
2022/03/06 10:43:19;;;;;;;6.43;5.20;;;;;;;21.32;16.87;101237.53;5068446;28;20468;-64
2022/03/06 10:45:48;;;;;;;7.07;5.25;;;;;;;22.74;16.73;101226.63;5067679;28;20238;-64
2022/03/06 10:48:18;;;;;;;6.43;5.25;;;;;;;24.35;15.38;101212.91;5065132;28;20227;-64
2022/03/06 10:50:46;;;;;;;7.32;5.68;;;;;;;23.02;15.54;101224.56;5066724;28;20213;-64
2022/03/06 10:53:21;;;;;;;8.13;6.32;;;;;;;17.49;21.27;101232.59;5065450;28;20342;-64
2022/03/06 10:55:50;;;;;;;8.35;5.88;;;;;;;18.85;19.36;101229.13;5065903;28;20503;-64
2022/03/06 10:58:21;;;;;;;7.03;5.53;;;;;;;20.15;18.12;101219.38;5068713;28;20211;-63
2022/03/06 11:00:49;;;;;;;7.15;5.90;;;;;;;21.14;17.85;101225.56;5066581;28;20253;-63
2022/03/06 11:03:17;;;;;;;6.97;5.45;;;;;;;21.21;17.93;101224.59;5062968;28;20586;-64
2022/03/06 11:05:47;;;;;;;7.07;5.95;;;;;;;22.02;18.09;101220.16;5068641;28;20207;-64
2022/03/06 11:08:18;;;;;;;6.75;5.68;;;;;;;17.77;19.67;101224.91;5065887;28;20241;-62
2022/03/06 11:10:46;;;;;;;8.27;5.80;;;;;;;15.79;22.27;101223.72;5066005;28;20298;-65
2022/03/06 11:13:14;;;;;;;7.05;5.80;;;;;;;15.51;22.56;101229.44;5066591;28;20321;-62
2022/03/06 11:15:44;;;;;;;6.93;5.45;;;;;;;14.75;23.39;101222.22;5067546;28;20211;-63
2022/03/06 11:18:12;;;;;;;8.10;6.18;;;;;;;14.35;24.13;101224.53;5067491;28;20215;-62
2022/03/06 11:20:41;;;;;;;6.63;5.25;;;;;;;15.38;23.77;101216.56;5067963;28;20663;-62
2022/03/06 11:23:19;;;;;;;7.95;5.45;;;;;;;17.20;21.66;101214.44;5066680;28;20783;-62
2022/03/06 11:25:59;;;;;;;7.22;6.20;;;;;;;17.22;21.53;101207.91;5063766;28;20243;-64
2022/03/06 11:28:39;;;;;;;7.63;6.18;;;;;;;17.84;20.23;101210.66;5070758;28;20309;-62
2022/03/06 11:31:08;;;;;;;9.75;6.80;;;;;;;17.77;20.63;101206.97;5068316;28;20240;-61
2022/03/06 11:33:41;;;;;;;8.45;5.97;;;;;;;17.21;21.49;101200.06;5062925;28;20219;-63
2022/03/06 11:36:20;;;;;;;8.65;6.57;;;;;;;18.24;20.73;101198.78;5067315;28;20756;-62